Time;durP1;ratioP1;P1;durP2;ratioP2;P2;SDS_P1;SDS_P2;PMS_P1;PMS_P2;Temp;Humidity;BMP_temperature;BMP_pressure;BME280_temperature;BME280_humidity;BME280_pressure;Samples;Min_cycle;Max_cycle;Signal;HPM_P1;HPM_P2
2022/09/12 00:00:49;;;;;;;5.72;4.75;;;;;;;11.26;54.07;101793.00;4989478;28;20292;-76
2022/09/12 00:03:15;;;;;;;5.55;4.07;;;;;;;11.13;54.39;101800.34;4957392;28;20043;-76
2022/09/12 00:05:45;;;;;;;8.77;6.95;;;;;;;11.03;54.85;101786.66;4982131;28;20045;-76
2022/09/12 00:08:12;;;;;;;9.15;7.20;;;;;;;10.91;55.56;101780.91;4963254;28;20050;-77
2022/09/12 00:10:42;;;;;;;11.25;7.85;;;;;;;10.90;55.92;101780.03;4964970;28;20043;-77
2022/09/12 00:13:08;;;;;;;9.95;7.15;;;;;;;10.89;56.50;101773.09;4963314;28;20039;-76
2022/09/12 00:15:42;;;;;;;11.98;9.52;;;;;;;10.80;57.19;101771.56;4967109;28;20289;-76
2022/09/12 00:18:14;;;;;;;13.35;8.45;;;;;;;10.88;57.28;101771.38;4957036;28;20416;-75
2022/09/12 00:20:42;;;;;;;12.35;7.55;;;;;;;10.99;56.93;101779.78;4980609;28;20058;-76
2022/09/12 00:23:07;;;;;;;10.43;7.97;;;;;;;11.00;56.82;101775.44;4969883;28;20039;-76
2022/09/12 00:25:33;;;;;;;13.27;9.07;;;;;;;10.94;56.68;101771.22;4962617;28;20038;-73
2022/09/12 00:27:58;;;;;;;13.85;9.27;;;;;;;10.89;57.09;101765.25;4980374;28;20065;-77
2022/09/12 00:30:24;;;;;;;17.33;9.40;;;;;;;10.86;57.44;101762.72;4964737;28;20034;-76
2022/09/12 00:32:50;;;;;;;14.90;9.32;;;;;;;10.83;57.53;101765.41;4995380;28;20034;-77
2022/09/12 00:35:16;;;;;;;14.27;9.60;;;;;;;10.81;57.51;101769.78;4966087;28;20386;-75
2022/09/12 00:37:41;;;;;;;15.25;8.50;;;;;;;10.84;57.34;101772.38;4973336;28;20144;-78
2022/09/12 00:40:07;;;;;;;11.20;8.85;;;;;;;10.82;57.35;101766.31;4983018;28;20054;-75
2022/09/12 00:42:32;;;;;;;13.07;9.43;;;;;;;10.82;57.48;101766.31;4982594;28;20500;-76
2022/09/12 00:44:58;;;;;;;16.30;9.95;;;;;;;10.73;57.59;101754.31;4984091;28;20093;-76
2022/09/12 00:47:30;;;;;;;14.27;9.18;;;;;;;10.73;57.41;101766.53;4965489;28;20101;-76
2022/09/12 00:50:17;;;;;;;14.98;8.95;;;;;;;10.70;57.56;101756.16;4975495;28;20116;-76
2022/09/12 00:52:54;;;;;;;12.30;8.93;;;;;;;10.75;57.37;101759.47;4988516;28;20130;-75
2022/09/12 00:55:24;;;;;;;11.50;8.30;;;;;;;10.84;57.24;101752.31;4963452;28;20046;-75
2022/09/12 00:57:56;;;;;;;11.02;8.15;;;;;;;10.94;56.87;101759.91;4965089;28;20069;-75
2022/09/12 01:00:23;;;;;;;;;;;;;;;10.91;57.04;101752.16;4960893;28;20046;-76
2022/09/12 01:02:53;;;;;;;11.00;7.80;;;;;;;10.93;56.50;101759.03;4982010;28;19995;-76
2022/09/12 01:05:20;;;;;;;12.65;7.53;;;;;;;10.84;56.35;101759.28;4992174;28;20511;-76
2022/09/12 01:07:47;;;;;;;12.68;8.25;;;;;;;10.81;56.70;101756.72;4970351;28;20727;-76
2022/09/12 01:10:13;;;;;;;10.88;7.38;;;;;;;10.78;56.61;101752.44;4981228;28;20078;-77
2022/09/12 01:12:41;;;;;;;10.85;8.30;;;;;;;10.71;56.69;101752.66;4962954;28;20640;-75
2022/09/12 01:15:07;;;;;;;13.48;8.93;;;;;;;10.57;56.75;101751.25;4983896;28;20061;-75
2022/09/12 01:18:32;;;;;;;12.18;9.05;;;;;;;10.47;56.94;101749.75;4981141;28;20038;-76
2022/09/12 01:21:33;;;;;;;10.68;7.03;;;;;;;10.55;56.56;101742.59;4928415;28;20039;-76
2022/09/12 01:24:25;;;;;;;11.60;8.07;;;;;;;10.51;56.81;101750.56;4960762;28;20568;-77
2022/09/12 01:27:09;;;;;;;10.30;7.50;;;;;;;10.60;56.50;101751.16;4960528;28;20398;-75
2022/09/12 01:29:53;;;;;;;13.15;8.50;;;;;;;10.68;56.50;101740.47;4962177;28;20065;-77
2022/09/12 01:32:33;;;;;;;10.43;7.82;;;;;;;10.73;56.27;101740.41;4956724;28;20089;-76
2022/09/12 01:35:36;;;;;;;11.77;8.32;;;;;;;10.84;55.82;101748.84;4963375;28;20042;-75
2022/09/12 01:38:04;;;;;;;10.38;7.68;;;;;;;10.79;55.66;101742.81;4945786;28;20457;-74
2022/09/12 01:40:39;;;;;;;13.27;8.73;;;;;;;10.82;55.86;101745.41;4941544;28;20492;-76
2022/09/12 01:43:27;;;;;;;11.88;7.25;;;;;;;10.77;55.76;101752.47;4953598;28;20042;-77
2022/09/12 01:46:16;;;;;;;7.78;6.43;;;;;;;10.74;55.48;101752.56;4972705;28;20022;-77
2022/09/12 01:48:56;;;;;;;10.70;7.40;;;;;;;10.69;55.48;101749.22;4946485;28;20062;-76
2022/09/12 01:51:26;;;;;;;10.85;8.38;;;;;;;10.54;55.73;101740.00;4947208;28;20057;-77
2022/09/12 01:53:58;;;;;;;12.32;7.53;;;;;;;10.43;55.94;101737.66;4945586;28;20502;-78
2022/09/12 01:56:28;;;;;;;10.82;7.47;;;;;;;10.50;55.95;101731.38;4978151;28;20879;-76
2022/09/12 01:59:09;;;;;;;8.95;6.68;;;;;;;10.50;55.80;101723.53;4980957;28;20046;-77
2022/09/12 02:01:53;;;;;;;10.85;7.55;;;;;;;10.54;55.70;101722.56;4979731;28;20447;-75
2022/09/12 02:04:24;;;;;;;13.07;8.57;;;;;;;10.59;55.73;101723.31;4955509;28;20035;-77
2022/09/12 02:07:17;;;;;;;12.80;8.83;;;;;;;10.62;55.77;101720.59;4955381;28;20102;-78
2022/09/12 02:09:58;;;;;;;13.50;8.93;;;;;;;10.45;55.65;101720.19;4959890;28;20108;-77
2022/09/12 02:12:30;;;;;;;13.83;7.97;;;;;;;10.35;56.02;101714.34;4995605;28;20407;-76
2022/09/12 02:15:02;;;;;;;13.07;8.05;;;;;;;10.28;56.51;101711.91;4999153;28;20049;-76
2022/09/12 02:17:30;;;;;;;10.10;6.93;;;;;;;10.34;56.28;101714.38;4983642;28;20047;-76
2022/09/12 02:20:05;;;;;;;13.18;8.30;;;;;;;10.43;56.01;101707.16;4971743;28;20083;-76
2022/09/12 02:22:35;;;;;;;11.18;7.55;;;;;;;10.52;55.94;101710.44;4959416;28;20057;-74
2022/09/12 02:25:02;;;;;;;13.85;8.82;;;;;;;10.40;56.08;101695.94;4982240;28;20508;-78
2022/09/12 02:27:41;;;;;;;12.60;9.40;;;;;;;10.37;56.34;101691.66;4950546;28;20468;-76
2022/09/12 02:30:08;;;;;;;17.52;10.05;;;;;;;10.35;56.75;101690.84;4970168;28;20102;-78
2022/09/12 02:32:56;;;;;;;15.60;9.48;;;;;;;10.34;57.51;101683.88;4971132;28;20328;-78
2022/09/12 02:35:42;;;;;;;15.05;9.75;;;;;;;10.41;57.48;101685.47;4973952;28;20034;-77
2022/09/12 02:38:26;;;;;;;14.95;9.80;;;;;;;10.38;57.83;101690.75;4972068;28;20042;-78
2022/09/12 02:40:51;;;;;;;13.68;8.80;;;;;;;10.48;57.47;101695.72;4953577;28;20046;-76
2022/09/12 02:43:17;;;;;;;16.90;9.77;;;;;;;10.44;57.75;101692.34;4982737;28;20046;-77
2022/09/12 02:45:43;;;;;;;14.20;9.23;;;;;;;10.41;57.31;101687.19;4968047;28;20040;-76
2022/09/12 02:48:21;;;;;;;13.65;8.55;;;;;;;10.37;57.88;101688.16;4980222;28;20057;-76
2022/09/12 02:50:46;;;;;;;12.07;9.18;;;;;;;10.37;57.82;101690.78;4981666;28;20038;-76
2022/09/12 02:53:12;;;;;;;15.02;9.35;;;;;;;10.34;57.12;101690.88;4967503;28;20286;-75
2022/09/12 02:55:40;;;;;;;13.20;8.77;;;;;;;10.39;56.95;101694.22;4962803;28;20031;-77
2022/09/12 02:58:10;;;;;;;14.43;9.35;;;;;;;10.44;56.96;101692.34;4944685;28;20074;-76
2022/09/12 03:01:11;;;;;;;14.02;7.88;;;;;;;10.40;56.95;101693.31;4961830;28;20564;-78
2022/09/12 03:03:54;;;;;;;12.55;8.43;;;;;;;10.35;57.07;101692.59;4977299;28;20050;-78
2022/09/12 03:06:36;;;;;;;16.00;9.70;;;;;;;10.25;57.36;101686.72;4981493;28;20034;-75
2022/09/12 03:09:23;;;;;;;12.95;8.73;;;;;;;10.21;57.51;101683.34;4944783;28;20085;-76
2022/09/12 03:12:05;;;;;;;12.57;7.80;;;;;;;10.25;57.41;101672.81;4965106;28;20057;-77
2022/09/12 03:15:02;;;;;;;12.80;9.73;;;;;;;10.18;57.46;101675.56;4984542;28;20038;-78
2022/09/12 03:18:00;;;;;;;13.30;8.35;;;;;;;10.33;57.14;101663.03;4970032;28;20054;-75
2022/09/12 03:20:44;;;;;;;12.45;8.20;;;;;;;10.39;57.30;101657.63;4981478;28;20027;-76
2022/09/12 03:23:54;;;;;;;11.77;8.65;;;;;;;10.40;57.04;101654.13;4979920;28;20030;-77
2022/09/12 03:26:29;;;;;;;11.45;8.18;;;;;;;10.30;56.94;101652.66;4968663;28;20243;-73
2022/09/12 03:28:58;;;;;;;14.05;8.75;;;;;;;10.30;57.26;101658.72;4934161;28;20051;-77
2022/09/12 03:31:23;;;;;;;15.63;9.88;;;;;;;10.26;57.47;101658.84;4945194;28;20456;-75
2022/09/12 03:33:49;;;;;;;15.25;9.10;;;;;;;10.25;57.96;101655.38;4962691;28;20053;-78
2022/09/12 03:36:25;;;;;;;16.42;10.13;;;;;;;10.21;57.87;101648.50;4961362;28;20129;-77
2022/09/12 03:38:51;;;;;;;13.45;9.93;;;;;;;10.16;58.25;101646.03;4964157;28;20041;-76
2022/09/12 03:41:17;;;;;;;16.35;10.93;;;;;;;10.21;58.29;101649.41;4963449;28;20038;-77
2022/09/12 03:43:43;;;;;;;16.52;9.18;;;;;;;10.24;58.02;101647.59;4993392;28;20050;-77
2022/09/12 03:46:09;;;;;;;13.68;9.00;;;;;;;10.25;57.73;101654.53;4976695;28;20543;-77
2022/09/12 03:48:35;;;;;;;10.45;7.68;;;;;;;10.24;58.00;101645.00;4945431;28;20043;-78
2022/09/12 03:51:07;;;;;;;15.77;9.60;;;;;;;10.15;58.21;101639.09;4962179;28;20533;-78
2022/09/12 03:53:32;;;;;;;15.23;8.70;;;;;;;10.12;58.45;101641.78;4945574;28;20130;-77
2022/09/12 03:55:58;;;;;;;16.83;9.50;;;;;;;10.17;57.96;101645.16;4966176;28;20257;-78
2022/09/12 03:58:28;;;;;;;14.57;9.05;;;;;;;10.15;58.12;101643.47;4956470;28;20130;-80
2022/09/12 04:00:53;;;;;;;13.90;9.00;;;;;;;10.04;58.24;101633.28;4962661;28;20428;-77
2022/09/12 04:03:19;;;;;;;13.63;9.32;;;;;;;10.19;58.26;101638.13;4978577;28;20052;-76
2022/09/12 04:05:45;;;;;;;14.63;8.82;;;;;;;10.16;58.20;101642.56;4981891;28;20500;-77
2022/09/12 04:08:11;;;;;;;12.38;8.35;;;;;;;10.15;58.16;101638.25;4958283;28;20076;-78
2022/09/12 04:10:36;;;;;;;13.15;9.32;;;;;;;10.11;58.40;101644.44;4955698;28;20133;-78
2022/09/12 04:13:02;;;;;;;14.23;9.70;;;;;;;10.10;58.10;101638.38;4956992;28;20178;-77
2022/09/12 04:15:27;;;;;;;14.85;9.00;;;;;;;10.09;58.06;101634.03;4981826;28;20050;-78
2022/09/12 04:17:53;;;;;;;12.38;8.85;;;;;;;10.07;58.14;101634.97;4980870;28;20052;-78
2022/09/12 04:20:18;;;;;;;16.73;10.02;;;;;;;10.10;58.13;101635.75;4980761;28;20734;-77
2022/09/12 04:22:44;;;;;;;15.25;10.25;;;;;;;10.09;58.33;101634.03;4968152;28;20073;-78
2022/09/12 04:25:10;;;;;;;15.23;9.38;;;;;;;10.08;57.93;101629.72;4951985;28;20027;-75
2022/09/12 04:27:36;;;;;;;14.57;9.77;;;;;;;10.07;58.21;101622.75;4945275;28;20049;-76
2022/09/12 04:30:02;;;;;;;16.23;10.75;;;;;;;9.94;58.71;101629.19;4968214;28;20026;-77
2022/09/12 04:32:30;;;;;;;15.75;9.60;;;;;;;10.03;58.28;101631.56;4981338;28;20407;-79
2022/09/12 04:34:55;;;;;;;14.85;9.35;;;;;;;9.96;58.55;101630.84;4959230;28;20080;-78
2022/09/12 04:37:22;;;;;;;15.15;10.00;;;;;;;9.95;58.80;101625.69;4975052;28;20054;-80
2022/09/12 04:39:48;;;;;;;19.75;11.00;;;;;;;9.94;58.71;101618.75;4972462;28;20293;-77
2022/09/12 04:42:14;;;;;;;13.68;9.77;;;;;;;9.93;58.88;101617.91;4971097;28;20050;-78
2022/09/12 04:44:40;;;;;;;15.98;10.13;;;;;;;9.94;58.67;101618.75;4951528;28;20206;-76
2022/09/12 04:47:05;;;;;;;15.82;10.07;;;;;;;10.00;58.58;101618.59;4967623;28;20046;-77
2022/09/12 04:49:31;;;;;;;15.95;10.95;;;;;;;9.97;58.84;101613.47;4972490;28;20042;-79
2022/09/12 04:51:56;;;;;;;13.63;9.55;;;;;;;10.07;58.44;101607.09;4952959;28;20434;-77
2022/09/12 04:54:22;;;;;;;15.45;10.20;;;;;;;10.06;58.64;101615.84;4982984;28;20058;-80
2022/09/12 04:56:49;;;;;;;14.23;9.50;;;;;;;10.07;58.64;101620.16;4971724;28;20034;-76
2022/09/12 04:59:17;;;;;;;14.52;9.57;;;;;;;10.08;58.31;101621.88;4985898;28;20026;-77
2022/09/12 05:01:43;;;;;;;15.77;10.48;;;;;;;10.09;58.28;101620.13;4970655;28;20042;-81
2022/09/12 05:04:10;;;;;;;13.68;9.85;;;;;;;10.07;58.55;101614.06;5019376;28;20045;-78
2022/09/12 05:06:37;;;;;;;14.32;10.07;;;;;;;10.19;58.46;101611.13;4967781;28;20041;-76
2022/09/12 05:09:04;;;;;;;15.90;10.75;;;;;;;10.11;58.29;101611.34;4973018;28;20065;-78
2022/09/12 05:11:33;;;;;;;14.20;9.95;;;;;;;10.18;58.59;101612.88;4981221;28;20412;-78
2022/09/12 05:13:59;;;;;;;16.60;10.45;;;;;;;10.23;58.13;101615.38;4968386;28;20160;-79
2022/09/12 05:16:26;;;;;;;14.32;9.45;;;;;;;10.22;58.04;101611.91;4979147;28;20121;-77
2022/09/12 05:18:52;;;;;;;16.83;10.10;;;;;;;10.33;58.28;101619.47;4967153;28;20221;-77
2022/09/12 05:21:20;;;;;;;11.55;8.05;;;;;;;10.52;57.75;101611.97;4967153;28;20038;-77
2022/09/12 05:23:48;;;;;;;12.13;9.18;;;;;;;10.63;57.61;101617.75;4966038;28;20046;-76
2022/09/12 05:26:15;;;;;;;13.85;10.07;;;;;;;10.60;57.27;101617.84;4971029;28;20062;-77
2022/09/12 05:28:41;;;;;;;15.60;10.15;;;;;;;10.64;57.07;101619.47;4980687;28;20061;-76
2022/09/12 05:31:12;;;;;;;15.95;10.98;;;;;;;10.61;57.30;101616.91;4980788;28;20124;-77
2022/09/12 05:33:40;;;;;;;14.00;9.82;;;;;;;10.65;56.89;101615.09;4966896;28;20073;-78
2022/09/12 05:36:09;;;;;;;17.30;11.13;;;;;;;10.74;56.77;101611.34;4991832;28;20094;-79
2022/09/12 05:38:36;;;;;;;14.35;10.57;;;;;;;10.89;55.92;101605.72;4950181;28;20086;-79
2022/09/12 05:41:05;;;;;;;16.58;10.10;;;;;;;10.97;56.29;101614.19;4956159;28;20046;-75
2022/09/12 05:43:32;;;;;;;14.38;10.25;;;;;;;11.13;56.19;101611.09;4986391;28;20046;-77
2022/09/12 05:46:02;;;;;;;15.02;9.95;;;;;;;11.20;55.80;101605.63;4965443;28;20026;-77
2022/09/12 05:48:27;;;;;;;14.32;9.93;;;;;;;11.33;55.87;101613.97;4981756;28;20129;-77
2022/09/12 05:51:11;;;;;;;16.13;10.07;;;;;;;11.41;55.39;101611.94;4969069;28;20086;-78
2022/09/12 05:53:39;;;;;;;13.13;9.75;;;;;;;11.69;55.08;101624.16;4998745;28;20039;-77
2022/09/12 05:56:10;;;;;;;14.57;9.85;;;;;;;12.09;55.47;101622.88;4961772;28;20084;-78
2022/09/12 05:58:37;;;;;;;14.82;10.90;;;;;;;12.51;54.79;101624.84;4967582;28;20049;-78
2022/09/12 06:01:11;;;;;;;14.70;10.25;;;;;;;13.15;52.44;101621.63;4979856;28;20030;-76
2022/09/12 06:03:44;;;;;;;14.02;9.48;;;;;;;14.03;50.60;101625.94;4974416;28;20058;-77
2022/09/12 06:06:14;;;;;;;13.68;8.85;;;;;;;15.24;48.58;101623.19;4992446;28;20076;-78
2022/09/12 06:08:41;;;;;;;13.40;8.95;;;;;;;16.13;45.75;101617.91;4978130;28;20557;-78
2022/09/12 06:11:09;;;;;;;11.05;7.88;;;;;;;16.79;44.58;101615.28;4984602;28;20022;-77
2022/09/12 06:13:38;;;;;;;14.05;9.27;;;;;;;17.38;42.77;101617.31;4982625;28;20222;-78
2022/09/12 06:16:09;;;;;;;9.93;7.68;;;;;;;19.15;40.19;101611.94;4968074;28;20026;-78
2022/09/12 06:18:35;;;;;;;9.45;8.32;;;;;;;20.27;37.33;101615.06;4962460;28;20074;-77
2022/09/12 06:21:06;;;;;;;10.50;8.07;;;;;;;20.36;34.89;101614.44;4964490;28;20034;-79
2022/09/12 06:23:32;;;;;;;11.35;7.60;;;;;;;20.58;34.57;101612.94;4969026;28;20081;-77
2022/09/12 06:25:58;;;;;;;10.05;7.90;;;;;;;22.02;33.01;101620.03;4982507;28;20029;-77
2022/09/12 06:28:24;;;;;;;11.20;7.72;;;;;;;22.58;29.80;101614.75;4981228;28;20080;-77
2022/09/12 06:30:50;;;;;;;12.75;8.75;;;;;;;21.48;34.33;101613.50;4967182;28;20058;-77
2022/09/12 06:33:16;;;;;;;10.32;8.15;;;;;;;20.43;33.98;101606.88;4950989;28;20081;-78
2022/09/12 06:35:42;;;;;;;10.95;8.77;;;;;;;20.99;34.30;101614.44;4953692;28;20085;-77
2022/09/12 06:38:08;;;;;;;11.40;8.88;;;;;;;20.35;35.03;101610.09;4970785;28;20042;-77
2022/09/12 06:40:34;;;;;;;10.68;9.32;;;;;;;19.74;36.38;101609.81;4983572;28;20275;-78
2022/09/12 06:43:00;;;;;;;13.63;10.60;;;;;;;20.40;35.91;101600.00;4974168;28;20381;-75
2022/09/12 06:45:31;;;;;;;;;;;;;;;19.80;35.48;101609.41;4965333;28;21732;-78
2022/09/12 06:47:57;;;;;;;14.85;10.70;;;;;;;19.77;36.68;101603.44;5012581;28;19964;-77
2022/09/12 06:50:23;;;;;;;14.88;11.50;;;;;;;20.11;36.81;101597.53;4981817;28;20062;-78
2022/09/12 06:52:49;;;;;;;15.88;12.75;;;;;;;20.31;34.95;101597.97;4982073;28;20046;-76
2022/09/12 06:55:16;;;;;;;16.85;11.55;;;;;;;19.68;36.30;101592.50;4996935;28;20314;-77
2022/09/12 06:57:42;;;;;;;13.40;10.57;;;;;;;18.73;39.02;101593.38;4996519;28;20051;-78
2022/09/12 07:00:08;;;;;;;16.40;11.95;;;;;;;17.76;41.11;101604.56;4982313;28;20034;-77
2022/09/12 07:02:34;;;;;;;20.38;13.45;;;;;;;16.94;42.47;101599.56;4988227;28;20053;-78
2022/09/12 07:05:00;;;;;;;20.90;14.23;;;;;;;16.36;43.93;101599.09;4964307;28;20034;-76
2022/09/12 07:07:25;;;;;;;19.10;13.50;;;;;;;16.06;45.18;101604.19;4946056;28;20611;-76
2022/09/12 07:09:51;;;;;;;20.38;13.50;;;;;;;15.82;46.15;101598.38;4945962;28;20560;-78
2022/09/12 07:12:16;;;;;;;19.02;13.80;;;;;;;15.74;46.83;101596.13;4950802;28;20062;-78
2022/09/12 07:14:42;;;;;;;18.67;13.68;;;;;;;15.54;47.93;101605.00;4982845;28;20450;-77
2022/09/12 07:17:07;;;;;;;37.10;21.42;;;;;;;15.38;47.76;101610.19;4980571;28;20054;-77
2022/09/12 07:19:33;;;;;;;19.63;13.02;;;;;;;15.28;48.21;101610.69;4990343;28;20037;-78
2022/09/12 07:22:00;;;;;;;19.92;12.70;;;;;;;15.63;48.92;101614.25;4979951;28;20034;-77
2022/09/12 07:24:26;;;;;;;22.67;13.75;;;;;;;15.86;47.50;101605.16;4979611;28;20113;-78
2022/09/12 07:26:51;;;;;;;21.63;14.43;;;;;;;16.01;46.80;101606.22;4987196;28;20078;-76
2022/09/12 07:29:17;;;;;;;21.55;13.68;;;;;;;16.09;45.92;101611.09;4978453;28;20513;-76
2022/09/12 07:31:44;;;;;;;19.30;13.32;;;;;;;16.08;46.19;101609.38;4964017;28;20381;-76
2022/09/12 07:34:09;;;;;;;26.02;12.98;;;;;;;16.19;46.89;101612.31;4980339;28;20034;-75
2022/09/12 07:36:35;;;;;;;20.50;12.82;;;;;;;16.06;46.79;101605.97;4965464;28;20044;-78
2022/09/12 07:39:00;;;;;;;19.55;12.70;;;;;;;16.16;46.57;101605.41;4963471;28;20395;-77
2022/09/12 07:41:28;;;;;;;21.27;13.82;;;;;;;16.55;46.44;101606.03;4966916;28;20049;-76
2022/09/12 07:43:59;;;;;;;22.60;14.02;;;;;;;16.80;46.40;101603.81;4957297;28;20054;-77
2022/09/12 07:46:26;;;;;;;18.75;13.57;;;;;;;16.85;46.49;101611.47;4958864;28;20034;-78
2022/09/12 07:48:53;;;;;;;21.02;13.25;;;;;;;16.79;46.02;101604.72;4960296;28;20039;-77
2022/09/12 07:51:18;;;;;;;17.77;11.38;;;;;;;16.76;46.33;101607.53;4965174;28;20881;-77
2022/09/12 07:53:44;;;;;;;20.13;12.45;;;;;;;16.95;45.90;101609.16;4980122;28;20471;-75
2022/09/12 07:56:11;;;;;;;20.08;13.00;;;;;;;16.84;45.38;101607.09;4981808;28;20034;-78
2022/09/12 07:58:39;;;;;;;21.05;12.77;;;;;;;16.97;46.02;101604.66;4978013;28;20046;-74
2022/09/12 08:01:07;;;;;;;18.20;12.60;;;;;;;17.10;45.62;101608.31;4962459;28;20480;-76
2022/09/12 08:03:36;;;;;;;25.45;14.13;;;;;;;16.94;45.68;101604.84;4967744;28;20034;-77
2022/09/12 08:06:04;;;;;;;22.27;12.68;;;;;;;17.12;46.87;101600.31;4979127;28;20065;-77
2022/09/12 08:08:29;;;;;;;18.13;13.50;;;;;;;17.51;44.23;101599.84;4969637;28;20480;-78
2022/09/12 08:11:00;;;;;;;18.00;12.68;;;;;;;17.63;44.96;101599.13;4981454;28;20026;-76
2022/09/12 08:13:27;;;;;;;17.52;11.73;;;;;;;18.04;43.50;101598.44;4966301;28;20490;-78
2022/09/12 08:15:59;;;;;;;16.25;12.15;;;;;;;18.18;43.16;101600.25;4967904;28;20027;-78
2022/09/12 08:18:27;;;;;;;21.08;13.23;;;;;;;18.02;42.59;101597.69;4977735;28;20078;-77
2022/09/12 08:21:00;;;;;;;22.60;13.40;;;;;;;17.80;43.72;101594.63;4986158;28;20058;-78
2022/09/12 08:23:27;;;;;;;21.55;12.15;;;;;;;17.96;44.44;101600.72;4985545;28;20177;-78
2022/09/12 08:25:57;;;;;;;21.65;13.40;;;;;;;18.18;42.91;101594.97;4970971;28;20113;-77
2022/09/12 08:28:26;;;;;;;24.25;13.82;;;;;;;18.09;43.32;101594.69;4985841;28;20054;-78
2022/09/12 08:30:53;;;;;;;19.80;14.10;;;;;;;18.36;43.69;101598.31;4987356;28;20034;-75
2022/09/12 08:33:19;;;;;;;21.23;13.90;;;;;;;18.31;42.48;101595.09;4981762;28;20038;-75
2022/09/12 08:35:45;;;;;;;32.40;19.42;;;;;;;18.33;43.24;101587.91;4983716;28;20420;-76
2022/09/12 08:38:11;;;;;;;17.83;12.18;;;;;;;18.69;43.54;101594.50;4986903;28;20515;-76
2022/09/12 08:40:52;;;;;;;22.35;13.45;;;;;;;18.34;43.01;101594.94;4970124;28;20901;-76
2022/09/12 08:43:36;;;;;;;16.67;11.13;;;;;;;18.61;43.05;101594.16;4958756;28;20038;-77
2022/09/12 08:46:17;;;;;;;23.92;13.45;;;;;;;18.47;42.97;101595.00;4985105;28;20034;-78
2022/09/12 08:48:45;;;;;;;22.30;14.15;;;;;;;18.24;43.85;101597.28;4978296;28;20054;-76
2022/09/12 08:51:15;;;;;;;24.08;14.57;;;;;;;17.93;44.15;101598.25;4966202;28;20061;-76
2022/09/12 08:53:42;;;;;;;20.90;13.38;;;;;;;18.10;44.21;101591.09;4980312;28;20081;-77
2022/09/12 08:56:10;;;;;;;23.77;14.98;;;;;;;17.53;44.35;101595.31;4965259;28;20320;-77
2022/09/12 08:58:43;;;;;;;21.50;13.57;;;;;;;17.62;44.81;101596.56;4979403;28;20054;-78
2022/09/12 09:01:31;;;;;;;30.55;18.08;;;;;;;17.72;44.95;101586.31;4959433;28;20057;-76
2022/09/12 09:04:45;;;;;;;24.92;14.50;;;;;;;17.53;44.98;101584.75;4996993;28;20081;-77
2022/09/12 09:07:47;;;;;;;21.65;13.27;;;;;;;17.55;45.25;101590.78;4987136;28;20045;-75
2022/09/12 09:10:48;;;;;;;23.80;14.10;;;;;;;17.49;45.47;101582.38;4983227;28;20061;-77
2022/09/12 09:16:33;;;;;;;20.23;12.95;;;;;;;17.34;46.13;101587.56;4977556;28;20125;-75
2022/09/12 09:19:14;;;;;;;23.10;13.77;;;;;;;17.18;45.70;101586.72;4977000;28;20064;-75
2022/09/12 09:21:48;;;;;;;22.20;13.60;;;;;;;17.49;46.10;101585.84;4975607;28;20372;-76
2022/09/12 09:24:18;;;;;;;22.80;14.25;;;;;;;17.48;44.89;101585.97;4978568;28;20070;-78
2022/09/12 09:27:10;;;;;;;18.20;12.13;;;;;;;17.64;45.01;101592.03;4953042;28;20042;-78
2022/09/12 09:29:44;;;;;;;21.45;11.73;;;;;;;17.98;44.89;101585.63;4938202;28;20085;-77
2022/09/12 09:32:17;;;;;;;18.70;10.90;;;;;;;18.51;43.51;101590.38;4958540;28;20057;-74
2022/09/12 09:34:43;;;;;;;17.42;12.02;;;;;;;18.81;42.71;101579.63;4986305;28;20116;-76
2022/09/12 09:37:08;;;;;;;17.90;11.90;;;;;;;18.70;40.89;101588.28;4964322;28;20050;-77
2022/09/12 09:39:52;;;;;;;17.67;11.43;;;;;;;18.77;41.10;101586.94;4979799;28;20582;-77
2022/09/12 09:42:30;;;;;;;16.10;10.75;;;;;;;19.01;40.44;101578.38;4986477;28;20110;-78
2022/09/12 09:45:00;;;;;;;17.52;10.93;;;;;;;20.09;40.27;101578.22;4965212;28;20094;-78
2022/09/12 09:47:26;;;;;;;17.63;9.93;;;;;;;20.53;37.31;101570.75;4979219;28;20125;-76
2022/09/12 09:49:51;;;;;;;18.45;9.80;;;;;;;20.49;37.42;101556.84;4964050;28;20309;-76
2022/09/12 09:52:29;;;;;;;13.30;8.85;;;;;;;21.09;36.00;101551.69;4973392;28;20050;-78
2022/09/12 09:54:58;;;;;;;15.45;8.90;;;;;;;21.30;35.34;101555.38;4963964;28;20030;-77
2022/09/12 09:57:52;;;;;;;14.00;8.93;;;;;;;21.38;35.96;101552.16;4992415;28;20099;-77
2022/09/12 10:00:22;;;;;;;16.10;9.73;;;;;;;20.72;37.65;101554.34;4960997;28;20066;-78
2022/09/12 10:03:06;;;;;;;16.02;9.73;;;;;;;20.29;37.68;101541.50;5010292;28;20096;-78
2022/09/12 10:05:36;;;;;;;18.63;9.40;;;;;;;20.45;37.97;101536.78;4978841;28;20530;-77
2022/09/12 10:08:05;;;;;;;14.82;9.73;;;;;;;20.76;36.89;101539.88;4995425;28;20042;-78
2022/09/12 10:10:31;;;;;;;10.93;8.05;;;;;;;20.05;37.88;101528.97;4963424;28;20044;-76
2022/09/12 10:13:23;;;;;;;13.43;8.13;;;;;;;20.30;38.11;101532.56;4978654;28;20407;-76
2022/09/12 10:15:58;;;;;;;11.93;7.28;;;;;;;20.25;37.27;101534.72;4980375;28;20057;-74
2022/09/12 10:18:41;;;;;;;13.10;7.40;;;;;;;20.30;37.62;101528.09;4978389;28;20078;-78
2022/09/12 10:21:16;;;;;;;14.45;7.82;;;;;;;20.71;37.07;101531.41;4982089;28;20034;-76
2022/09/12 10:23:43;;;;;;;8.43;5.63;;;;;;;20.98;36.67;101523.25;4996219;28;20065;-77
2022/09/12 10:26:13;;;;;;;8.73;7.10;;;;;;;21.22;35.82;101519.69;4981027;28;20346;-79
2022/09/12 10:28:54;;;;;;;11.10;6.95;;;;;;;21.09;36.08;101527.75;4961745;28;20492;-76
2022/09/12 10:31:27;;;;;;;9.65;6.72;;;;;;;21.63;36.03;101526.38;4954482;28;20178;-78
2022/09/12 10:33:56;;;;;;;12.68;6.53;;;;;;;21.72;35.03;101515.84;4963270;28;20054;-77
2022/09/12 10:36:23;;;;;;;8.55;6.00;;;;;;;21.71;35.08;101513.31;4982397;28;20570;-78
2022/09/12 10:38:52;;;;;;;8.57;6.20;;;;;;;21.20;35.75;101514.50;4979506;28;20042;-78
2022/09/12 10:41:18;;;;;;;7.63;4.85;;;;;;;21.91;35.31;101511.75;4995421;28;20066;-77
2022/09/12 10:43:44;;;;;;;6.60;5.45;;;;;;;21.77;34.04;101516.34;4958888;28;20062;-79
2022/09/12 10:46:22;;;;;;;11.27;6.82;;;;;;;21.91;34.04;101517.06;4945944;28;20496;-78
2022/09/12 10:48:49;;;;;;;10.13;5.30;;;;;;;21.93;34.39;101515.97;4968882;28;20047;-78
2022/09/12 10:51:24;;;;;;;8.68;5.93;;;;;;;21.60;34.00;101514.16;4946869;28;20031;-77
2022/09/12 10:53:52;;;;;;;7.10;5.28;;;;;;;21.62;34.66;101511.38;4958485;28;20400;-76
2022/09/12 10:56:21;;;;;;;6.45;5.03;;;;;;;21.46;34.41;101511.66;4961899;28;20101;-75
2022/09/12 10:58:54;;;;;;;6.35;5.00;;;;;;;21.38;34.22;101506.06;4976919;28;20058;-75
2022/09/12 11:01:31;;;;;;;9.05;4.85;;;;;;;21.33;34.93;101517.94;4978591;28;20235;-75
2022/09/12 11:04:27;;;;;;;5.97;5.32;;;;;;;21.41;36.21;101511.19;4978480;28;20045;-75
2022/09/12 11:07:18;;;;;;;8.05;5.47;;;;;;;22.00;34.28;101503.03;4971977;28;20069;-78
2022/09/12 11:09:55;;;;;;;7.05;5.50;;;;;;;21.99;33.28;101493.38;4979793;28;20170;-75
2022/09/12 11:12:36;;;;;;;7.88;4.40;;;;;;;22.00;33.62;101499.53;4962527;28;20052;-78
2022/09/12 11:15:23;;;;;;;7.13;5.18;;;;;;;22.17;33.01;101486.59;4979036;28;20030;-76
2022/09/12 11:18:18;;;;;;;7.88;3.78;;;;;;;23.33;31.33;101482.50;4977952;28;20070;-77
2022/09/12 11:21:08;;;;;;;6.53;4.53;;;;;;;23.20;30.35;101485.34;4973155;28;20089;-76
2022/09/12 11:23:58;;;;;;;6.50;3.63;;;;;;;23.15;32.35;101487.56;4963709;28;20444;-76
2022/09/12 11:26:32;;;;;;;8.35;4.32;;;;;;;23.28;31.17;101477.56;4982978;28;20026;-78
2022/09/12 11:29:25;;;;;;;5.43;3.58;;;;;;;22.91;31.19;101480.63;4987192;28;20050;-78
2022/09/12 11:32:29;;;;;;;5.35;4.35;;;;;;;22.42;32.53;101473.97;4964308;28;20042;-78
2022/09/12 11:35:23;;;;;;;8.45;4.47;;;;;;;22.20;32.29;101477.53;4982072;28;20068;-76
2022/09/12 11:38:16;;;;;;;5.78;3.47;;;;;;;22.29;31.86;101462.63;4964271;28;20400;-78
2022/09/12 11:40:54;;;;;;;7.38;4.20;;;;;;;22.42;32.34;101473.13;4980247;28;20321;-77
2022/09/12 11:43:39;;;;;;;6.35;4.78;;;;;;;23.06;31.09;101467.84;4969311;28;20034;-76